Main page
METAR-TAF:

METAR-TAF

Airports :

Aérodrome de Dax - Seyresse

Dax, France

latitude: 43-41N, longitude: 001-04W, elevation: 32 m

Current weather observation

The report was made 14 minutes ago, at 02:00 UTC
Wind 2 kt from variable directions
Temperature 6°C
Humidity 81%
Pressure 1023 hPa
Visibility: 7000 m

METAR: LFBY 060200Z AUTO VRB02KT 7000 // ////// 06/03 Q1023

Time: 03:14 (02:14 UTC)

Forecast

The report was made 18 hours and 14 minutes ago, at 08:00 UTC
Forecast valid from 05 at 09 UTC to 05 at 18 UTC
Wind 5 kt from the East/Northeast
Visibility: 4000 m
Few clouds at a height of 4000 ft
mist
Becoming
from 05 at 09 UTC to 05 at 11 UTC
Visibility: 9000 m

TAF: LFBY 050800Z 0509/0518 07005KT 4000 BR FEW040 BECMG 0509/0511 9000 NSW

Weather observations and forecasts of more than 4000 airports (METAR and TAF reports).

The available stations are represented by yellow and red dots on the map.

Hover mouse over dot to see the name of the station.

Then click to see weather observations and forecasts.

To change the map : click on the green buttons with a black cross to zoom in, on the green button with a dash to zoom out, or on the green arrows for adjacent maps.


METAR-TAF: